Terminal Aerodrome Forecast
Issued by NWS

Home | Current Version | Previous Version | Graphics & Text | Print | Product List | Glossary On
Versions: 1 2 3 4 5 6 7 8 9 10 11 12
000
FTUS43 KIWX 242000 AAA
TAFSBN
TAF AMD
KSBN 242012Z 2420/2518 31010KT 5SM -RA BR OVC012
     FM250100 25012KT 5SM -RASN BR OVC006
     FM250600 26013KT P6SM OVC012
     FM251300 22010KT P6SM OVC020=

USA.gov is the U.S. government's official web portal to all federal, state and local government web resources and services.